Time;durP1;ratioP1;P1;durP2;ratioP2;P2;SDS_P1;SDS_P2;PMS_P1;PMS_P2;Temp;Humidity;BMP_temperature;BMP_pressure;BME280_temperature;BME280_humidity;BME280_pressure;Samples;Min_cycle;Max_cycle;Signal;HPM_P1;HPM_P2
2020/12/29 00:01:46;;;;;;;1.87;1.43;;;;;;;;;;5052081;28;20475;-60
2020/12/29 00:04:13;;;;;;;1.63;1.43;;;;;;;;;;5051844;28;20189;-61
2020/12/29 00:06:46;;;;;;;2.07;1.60;;;;;;;;;;5059352;28;20755;-61
2020/12/29 00:09:13;;;;;;;1.50;1.30;;;;;;;;;;5053137;28;20411;-61
2020/12/29 00:11:39;;;;;;;2.30;1.27;;;;;;;;;;5068299;28;20928;-61
2020/12/29 00:14:05;;;;;;;2.03;1.60;;;;;;;;;;5069357;28;20425;-61
2020/12/29 00:16:31;;;;;;;1.80;1.47;;;;;;;;;;5071158;28;20418;-60
2020/12/29 00:18:58;;;;;;;2.43;1.27;;;;;;;;;;5069005;28;20418;-60
2020/12/29 00:21:24;;;;;;;1.83;1.40;;;;;;;;;;5034527;28;20644;-61
2020/12/29 00:23:50;;;;;;;1.43;1.27;;;;;;;;;;5050605;28;20884;-61
2020/12/29 00:26:19;;;;;;;1.53;1.40;;;;;;;;;;5064350;28;20441;-60
2020/12/29 00:28:46;;;;;;;1.77;1.40;;;;;;;;;;5069713;28;20215;-61
2020/12/29 00:31:17;;;;;;;1.90;1.70;;;;;;;;;;5056163;28;20451;-60
2020/12/29 00:33:43;;;;;;;2.27;1.70;;;;;;;;;;5046298;28;20443;-60
2020/12/29 00:36:09;;;;;;;1.67;1.57;;;;;;;;;;5068763;28;20765;-61
2020/12/29 00:38:35;;;;;;;1.77;1.40;;;;;;;;;;5068789;28;20709;-61
2020/12/29 00:41:05;;;;;;;1.70;1.37;;;;;;;;;;5069374;28;20419;-60
2020/12/29 00:43:31;;;;;;;1.93;1.50;;;;;;;;;;5066430;28;20487;-60
2020/12/29 00:45:57;;;;;;;1.57;1.23;;;;;;;;;;5052688;28;20455;-61
2020/12/29 00:48:23;;;;;;;1.57;1.47;;;;;;;;;;5064898;28;20502;-59
2020/12/29 00:50:49;;;;;;;5.30;1.33;;;;;;;;;;5055434;28;20181;-64
2020/12/29 00:53:15;;;;;;;1.27;1.17;;;;;;;;;;5069693;28;20436;-61
2020/12/29 00:55:41;;;;;;;1.40;1.10;;;;;;;;;;5070365;28;20229;-61
2020/12/29 00:58:07;;;;;;;1.20;1.10;;;;;;;;;;5044722;28;20836;-61
2020/12/29 01:00:33;;;;;;;2.17;1.57;;;;;;;;;;5056251;28;20239;-61
2020/12/29 01:02:59;;;;;;;1.53;1.43;;;;;;;;;;5049716;28;20479;-61
2020/12/29 01:05:26;;;;;;;1.30;1.20;;;;;;;;;;5050478;28;20444;-61
2020/12/29 01:07:52;;;;;;;1.50;1.40;;;;;;;;;;5050488;28;20415;-60
2020/12/29 01:10:18;;;;;;;1.53;1.40;;;;;;;;;;5032176;28;20185;-61
2020/12/29 01:12:44;;;;;;;1.40;1.10;;;;;;;;;;5069665;28;20179;-61
2020/12/29 01:15:10;;;;;;;1.50;1.30;;;;;;;;;;5049850;28;20184;-60
2020/12/29 01:17:36;;;;;;;1.40;1.30;;;;;;;;;;5062102;28;20205;-60
2020/12/29 01:20:02;;;;;;;1.43;1.33;;;;;;;;;;5052006;28;20184;-60
2020/12/29 01:22:28;;;;;;;1.30;1.20;;;;;;;;;;5054790;28;20279;-60
2020/12/29 01:24:54;;;;;;;1.37;1.27;;;;;;;;;;5035629;28;20818;-60
2020/12/29 01:27:20;;;;;;;1.23;1.13;;;;;;;;;;5062285;28;20239;-61
2020/12/29 01:29:46;;;;;;;1.63;1.40;;;;;;;;;;5057272;28;20431;-60
2020/12/29 01:32:12;;;;;;;2.57;1.43;;;;;;;;;;5034008;28;20545;-60
2020/12/29 01:34:38;;;;;;;1.43;1.20;;;;;;;;;;5035185;28;20472;-61
2020/12/29 01:37:04;;;;;;;1.13;1.03;;;;;;;;;;5063803;28;20558;-60
2020/12/29 01:39:30;;;;;;;1.27;1.17;;;;;;;;;;5059634;28;20431;-61
2020/12/29 01:41:56;;;;;;;2.17;1.40;;;;;;;;;;5051072;28;20185;-60
2020/12/29 01:44:22;;;;;;;1.50;1.30;;;;;;;;;;5054565;28;20477;-61
2020/12/29 01:46:49;;;;;;;1.27;1.17;;;;;;;;;;5059033;28;20176;-61
2020/12/29 01:49:16;;;;;;;1.70;1.50;;;;;;;;;;5065886;28;20465;-60
2020/12/29 01:51:42;;;;;;;1.27;1.00;;;;;;;;;;5064981;28;20465;-60
2020/12/29 01:54:08;;;;;;;2.03;1.50;;;;;;;;;;5032552;28;20426;-61
2020/12/29 01:56:40;;;;;;;1.77;1.20;;;;;;;;;;5042296;28;20919;-61
2020/12/29 01:59:09;;;;;;;1.57;1.40;;;;;;;;;;5061295;28;20462;-61
2020/12/29 02:01:36;;;;;;;2.27;1.43;;;;;;;;;;5067812;28;20515;-61
2020/12/29 02:04:03;;;;;;;1.40;1.30;;;;;;;;;;5067980;28;20591;-60
2020/12/29 02:06:29;;;;;;;1.37;1.27;;;;;;;;;;5062391;28;20430;-62
2020/12/29 02:08:55;;;;;;;1.50;1.40;;;;;;;;;;5053543;28;20415;-60
2020/12/29 02:11:21;;;;;;;2.23;1.33;;;;;;;;;;5069749;28;20423;-61
2020/12/29 02:13:47;;;;;;;1.73;1.33;;;;;;;;;;5059670;28;20442;-59
2020/12/29 02:16:13;;;;;;;1.70;1.40;;;;;;;;;;5065861;28;20427;-60
2020/12/29 02:18:41;;;;;;;1.47;1.37;;;;;;;;;;5052897;28;20411;-62
2020/12/29 02:21:07;;;;;;;1.50;1.40;;;;;;;;;;5043505;28;20473;-61
2020/12/29 02:23:33;;;;;;;2.17;1.60;;;;;;;;;;5069475;28;20798;-61
2020/12/29 02:25:59;;;;;;;1.63;1.53;;;;;;;;;;5054159;28;20465;-60
2020/12/29 02:28:25;;;;;;;2.20;1.87;;;;;;;;;;5038071;28;20423;-61
2020/12/29 02:30:51;;;;;;;2.47;1.60;;;;;;;;;;5046036;28;20738;-61
2020/12/29 02:33:17;;;;;;;1.80;1.70;;;;;;;;;;5072487;28;20172;-60
2020/12/29 02:35:43;;;;;;;1.53;1.37;;;;;;;;;;5063945;28;20423;-62
2020/12/29 02:38:09;;;;;;;2.43;1.60;;;;;;;;;;5053104;28;20435;-62
2020/12/29 02:40:35;;;;;;;2.53;1.73;;;;;;;;;;5045928;28;20692;-60
2020/12/29 02:43:02;;;;;;;1.87;1.77;;;;;;;;;;5070501;28;20188;-61
2020/12/29 02:45:28;;;;;;;3.20;2.00;;;;;;;;;;5065476;28;20587;-61
2020/12/29 02:47:54;;;;;;;2.40;1.87;;;;;;;;;;5040742;28;20420;-61
2020/12/29 02:50:20;;;;;;;2.40;1.93;;;;;;;;;;5053945;28;20423;-61
2020/12/29 02:52:46;;;;;;;3.03;2.10;;;;;;;;;;5061452;28;20423;-61
2020/12/29 02:55:12;;;;;;;2.40;2.07;;;;;;;;;;5059295;28;20441;-61
2020/12/29 02:57:38;;;;;;;1.60;1.50;;;;;;;;;;5051989;28;20574;-59
2020/12/29 03:00:07;;;;;;;2.37;2.00;;;;;;;;;;5057064;28;20699;-61
2020/12/29 03:02:33;;;;;;;2.93;2.10;;;;;;;;;;5025932;28;20467;-60
2020/12/29 03:05:01;;;;;;;2.27;1.80;;;;;;;;;;5041430;28;20796;-62
2020/12/29 03:07:27;;;;;;;2.63;1.80;;;;;;;;;;5052000;28;20189;-60
2020/12/29 03:09:54;;;;;;;2.57;2.20;;;;;;;;;;5062147;28;20426;-59
2020/12/29 03:12:20;;;;;;;2.60;2.40;;;;;;;;;;5061797;28;20431;-61
2020/12/29 03:14:46;;;;;;;2.17;1.97;;;;;;;;;;5064754;28;20423;-63
2020/12/29 03:17:11;;;;;;;1.77;1.60;;;;;;;;;;5063443;28;20662;-61
2020/12/29 03:19:37;;;;;;;2.50;2.00;;;;;;;;;;5070276;28;20204;-60
2020/12/29 03:22:04;;;;;;;2.70;2.03;;;;;;;;;;5062727;28;20648;-60
2020/12/29 03:24:30;;;;;;;2.40;2.00;;;;;;;;;;5055262;28;20177;-62
2020/12/29 03:26:56;;;;;;;2.73;2.17;;;;;;;;;;5034253;28;20457;-61
2020/12/29 03:29:22;;;;;;;2.40;2.20;;;;;;;;;;5057882;28;20522;-61
2020/12/29 03:31:48;;;;;;;2.23;2.03;;;;;;;;;;5069756;28;20197;-60
2020/12/29 03:34:26;;;;;;;3.20;2.57;;;;;;;;;;5068956;28;20423;-60
2020/12/29 03:36:53;;;;;;;3.00;2.00;;;;;;;;;;5071695;28;21024;-61
2020/12/29 03:39:20;;;;;;;4.23;2.17;;;;;;;;;;5067268;28;20446;-62
2020/12/29 03:41:46;;;;;;;2.40;2.20;;;;;;;;;;5072149;28;20751;-61
2020/12/29 03:44:13;;;;;;;3.43;2.17;;;;;;;;;;5059895;28;20468;-61
2020/12/29 03:46:39;;;;;;;2.20;2.00;;;;;;;;;;5052200;28;20173;-59
2020/12/29 03:49:05;;;;;;;2.40;2.13;;;;;;;;;;5053684;28;20416;-61
2020/12/29 03:51:31;;;;;;;2.20;2.00;;;;;;;;;;5071616;28;20317;-59
2020/12/29 03:53:57;;;;;;;2.70;2.20;;;;;;;;;;5047512;28;20440;-61
2020/12/29 03:56:23;;;;;;;2.30;1.97;;;;;;;;;;5052947;28;20176;-61
2020/12/29 03:58:49;;;;;;;3.33;2.07;;;;;;;;;;5040551;28;20469;-61
2020/12/29 04:01:15;;;;;;;2.70;2.07;;;;;;;;;;5068841;28;20890;-61
2020/12/29 04:03:43;;;;;;;3.87;2.13;;;;;;;;;;5051854;28;20200;-61
2020/12/29 04:06:09;;;;;;;4.13;2.30;;;;;;;;;;5062213;28;20166;-61
2020/12/29 04:08:35;;;;;;;3.33;2.13;;;;;;;;;;5044344;28;20855;-61
2020/12/29 04:11:01;;;;;;;2.83;2.00;;;;;;;;;;5047932;28;20176;-61
2020/12/29 04:13:27;;;;;;;2.67;2.30;;;;;;;;;;5051598;28;20208;-61
2020/12/29 04:15:53;;;;;;;3.07;2.00;;;;;;;;;;5053342;28;20175;-61
2020/12/29 04:18:19;;;;;;;2.40;2.20;;;;;;;;;;5023928;28;20485;-61
2020/12/29 04:20:45;;;;;;;2.50;2.13;;;;;;;;;;5068280;28;20470;-61
2020/12/29 04:23:11;;;;;;;3.70;2.00;;;;;;;;;;5052454;28;20204;-61
2020/12/29 04:25:37;;;;;;;2.53;1.63;;;;;;;;;;5034406;28;20181;-62
2020/12/29 04:28:03;;;;;;;2.40;1.77;;;;;;;;;;5036300;28;20411;-60
2020/12/29 04:30:29;;;;;;;2.23;1.93;;;;;;;;;;5037325;28;20197;-61
2020/12/29 04:32:55;;;;;;;2.27;1.67;;;;;;;;;;5052553;28;20434;-61
2020/12/29 04:35:21;;;;;;;2.57;2.10;;;;;;;;;;5062321;28;20674;-61
2020/12/29 04:37:47;;;;;;;1.83;1.70;;;;;;;;;;5057737;28;20798;-63
2020/12/29 04:40:13;;;;;;;2.83;1.80;;;;;;;;;;5062481;28;20418;-61
2020/12/29 04:42:39;;;;;;;2.37;1.87;;;;;;;;;;5052321;28;20462;-61
2020/12/29 04:45:05;;;;;;;2.10;1.90;;;;;;;;;;5062278;28;20176;-60
2020/12/29 04:47:31;;;;;;;2.17;1.97;;;;;;;;;;5049415;28;20431;-61
2020/12/29 04:49:58;;;;;;;2.03;1.83;;;;;;;;;;5059158;28;20423;-61
2020/12/29 04:52:24;;;;;;;2.20;2.00;;;;;;;;;;5066398;28;20467;-61
2020/12/29 04:54:54;;;;;;;2.37;1.97;;;;;;;;;;5057862;28;20411;-61
2020/12/29 04:57:21;;;;;;;1.97;1.77;;;;;;;;;;5070722;28;20411;-60
2020/12/29 04:59:47;;;;;;;3.23;1.90;;;;;;;;;;5063801;28;20419;-61
2020/12/29 05:02:13;;;;;;;2.20;1.60;;;;;;;;;;5070319;28;20498;-61
2020/12/29 05:04:39;;;;;;;2.33;2.00;;;;;;;;;;5067608;28;20419;-60
2020/12/29 05:07:05;;;;;;;2.57;1.97;;;;;;;;;;5053756;28;20456;-60
2020/12/29 05:09:32;;;;;;;2.60;1.63;;;;;;;;;;5062048;28;21335;-62
2020/12/29 05:11:58;;;;;;;2.70;1.73;;;;;;;;;;5057210;28;20168;-61
2020/12/29 05:14:24;;;;;;;2.57;1.87;;;;;;;;;;5055863;28;20449;-61
2020/12/29 05:16:54;;;;;;;4.50;2.20;;;;;;;;;;5057605;28;20782;-61
2020/12/29 05:19:21;;;;;;;2.37;2.10;;;;;;;;;;5057459;28;20419;-60
2020/12/29 05:21:47;;;;;;;2.50;2.30;;;;;;;;;;5050404;28;20454;-61
2020/12/29 05:24:18;;;;;;;2.63;2.10;;;;;;;;;;5033256;28;20496;-61
2020/12/29 05:26:46;;;;;;;2.77;1.93;;;;;;;;;;5050221;28;20407;-62
2020/12/29 05:29:13;;;;;;;2.63;2.00;;;;;;;;;;5060651;28;20423;-61
2020/12/29 05:31:40;;;;;;;2.23;1.67;;;;;;;;;;5069042;28;20473;-60
2020/12/29 05:34:07;;;;;;;2.47;1.70;;;;;;;;;;5066381;28;20429;-59
2020/12/29 05:36:37;;;;;;;2.87;2.23;;;;;;;;;;5069099;28;20981;-61
2020/12/29 05:39:07;;;;;;;1.97;1.77;;;;;;;;;;5060038;28;20449;-62
2020/12/29 05:41:44;;;;;;;2.10;1.90;;;;;;;;;;5060441;28;20853;-60
2020/12/29 05:44:23;;;;;;;3.90;2.00;;;;;;;;;;5061287;28;20793;-60
2020/12/29 05:46:50;;;;;;;2.20;1.70;;;;;;;;;;5066992;28;20445;-60
2020/12/29 05:49:18;;;;;;;2.40;1.80;;;;;;;;;;5071007;28;20961;-61
2020/12/29 05:51:47;;;;;;;2.87;2.03;;;;;;;;;;5039765;28;20419;-60
2020/12/29 05:54:13;;;;;;;2.60;1.53;;;;;;;;;;5056719;28;20792;-64
2020/12/29 05:56:40;;;;;;;2.50;2.00;;;;;;;;;;5074018;28;20407;-60
2020/12/29 05:59:06;;;;;;;3.93;1.80;;;;;;;;;;5063421;28;20428;-61
2020/12/29 06:01:42;;;;;;;2.60;2.03;;;;;;;;;;5049688;28;20470;-61
2020/12/29 06:04:09;;;;;;;1.73;1.60;;;;;;;;;;5042531;28;20520;-62
2020/12/29 06:06:36;;;;;;;2.67;1.70;;;;;;;;;;5057597;28;20432;-61
2020/12/29 06:09:04;;;;;;;2.63;1.90;;;;;;;;;;5055024;28;20420;-61
2020/12/29 06:11:56;;;;;;;1.70;1.60;;;;;;;;;;5055591;28;20903;-61
2020/12/29 06:14:24;;;;;;;2.07;1.90;;;;;;;;;;5058553;28;20431;-61
2020/12/29 06:16:50;;;;;;;2.07;1.50;;;;;;;;;;5061415;28;20479;-61
2020/12/29 06:19:28;;;;;;;2.03;1.70;;;;;;;;;;5072579;28;20461;-60
2020/12/29 06:21:54;;;;;;;1.93;1.73;;;;;;;;;;5067840;28;20926;-61
2020/12/29 06:24:21;;;;;;;2.77;1.90;;;;;;;;;;5072442;28;20462;-60
2020/12/29 06:26:49;;;;;;;2.40;1.80;;;;;;;;;;5070054;28;20181;-60
2020/12/29 06:29:20;;;;;;;2.83;1.80;;;;;;;;;;5059241;28;20481;-61
2020/12/29 06:31:46;;;;;;;2.13;1.93;;;;;;;;;;5036314;28;20821;-61
2020/12/29 06:34:15;;;;;;;2.70;2.13;;;;;;;;;;5039522;28;21204;-61
2020/12/29 06:36:41;;;;;;;3.87;1.80;;;;;;;;;;5073150;28;20761;-61
2020/12/29 06:39:08;;;;;;;2.03;1.70;;;;;;;;;;5073080;28;20410;-61
2020/12/29 06:41:35;;;;;;;2.20;2.00;;;;;;;;;;5049048;28;20942;-61
2020/12/29 06:44:04;;;;;;;2.80;2.07;;;;;;;;;;5068887;28;20450;-61
2020/12/29 06:46:30;;;;;;;2.77;2.00;;;;;;;;;;5045569;28;20452;-61
2020/12/29 06:48:57;;;;;;;2.60;1.90;;;;;;;;;;5053260;28;20408;-61
2020/12/29 06:51:23;;;;;;;3.00;1.90;;;;;;;;;;5056875;28;20442;-63
2020/12/29 06:53:49;;;;;;;2.40;1.90;;;;;;;;;;5059465;28;20431;-61
2020/12/29 06:56:17;;;;;;;2.13;1.87;;;;;;;;;;5068784;28;20426;-61
2020/12/29 06:58:43;;;;;;;2.13;1.93;;;;;;;;;;5052074;28;20459;-61
2020/12/29 07:01:22;;;;;;;2.83;2.20;;;;;;;;;;5040905;28;20467;-63
2020/12/29 07:03:49;;;;;;;2.07;1.83;;;;;;;;;;5052188;28;20285;-61
2020/12/29 07:06:15;;;;;;;2.60;2.40;;;;;;;;;;5056634;28;20953;-62
2020/12/29 07:08:41;;;;;;;2.30;2.10;;;;;;;;;;5051145;28;20423;-60
2020/12/29 07:11:17;;;;;;;2.47;2.27;;;;;;;;;;5053434;28;20420;-62
2020/12/29 07:13:49;;;;;;;2.83;2.53;;;;;;;;;;5064620;28;20959;-60
2020/12/29 07:16:21;;;;;;;2.63;2.43;;;;;;;;;;5063239;28;20646;-61
2020/12/29 07:18:47;;;;;;;2.77;2.27;;;;;;;;;;5052819;28;20423;-61
2020/12/29 07:21:26;;;;;;;2.77;2.40;;;;;;;;;;5052181;28;20505;-60
2020/12/29 07:23:52;;;;;;;3.53;2.80;;;;;;;;;;5033955;28;20470;-62
2020/12/29 07:26:19;;;;;;;3.23;2.43;;;;;;;;;;5052294;28;20497;-64
2020/12/29 07:28:46;;;;;;;2.60;2.40;;;;;;;;;;5049248;28;20762;-60
2020/12/29 07:31:14;;;;;;;4.23;2.77;;;;;;;;;;5061569;28;20459;-60
2020/12/29 07:33:48;;;;;;;4.50;2.93;;;;;;;;;;5060652;28;20426;-61
2020/12/29 07:36:18;;;;;;;4.07;2.77;;;;;;;;;;5063631;28;20433;-63
2020/12/29 07:38:46;;;;;;;3.73;3.33;;;;;;;;;;5055351;28;20424;-62
2020/12/29 07:41:13;;;;;;;3.77;2.90;;;;;;;;;;5057147;28;20436;-62
2020/12/29 07:43:39;;;;;;;6.13;3.53;;;;;;;;;;5051628;28;20889;-62
2020/12/29 07:46:05;;;;;;;3.63;2.67;;;;;;;;;;5058038;28;21331;-60
2020/12/29 07:48:31;;;;;;;4.00;3.20;;;;;;;;;;5063467;28;20427;-61
2020/12/29 07:51:00;;;;;;;3.80;3.03;;;;;;;;;;5057878;28;20434;-61
2020/12/29 07:53:26;;;;;;;4.20;3.47;;;;;;;;;;5060440;28;20569;-61
2020/12/29 07:55:52;;;;;;;4.80;3.80;;;;;;;;;;5053557;28;20434;-61
2020/12/29 07:58:19;;;;;;;3.90;3.50;;;;;;;;;;5055630;28;20434;-62
2020/12/29 08:00:45;;;;;;;5.00;3.53;;;;;;;;;;5050968;28;20427;-61
2020/12/29 08:03:12;;;;;;;6.07;3.93;;;;;;;;;;5053018;28;20477;-61
2020/12/29 08:05:39;;;;;;;4.50;4.10;;;;;;;;;;5050779;28;20170;-61
2020/12/29 08:08:06;;;;;;;5.37;3.77;;;;;;;;;;5068398;28;20484;-62
2020/12/29 08:10:33;;;;;;;5.33;3.73;;;;;;;;;;5054962;28;20427;-61
2020/12/29 08:13:00;;;;;;;4.83;4.00;;;;;;;;;;5073964;28;20429;-60
2020/12/29 08:15:29;;;;;;;4.93;4.20;;;;;;;;;;5033683;28;20450;-61
2020/12/29 08:18:02;;;;;;;6.93;4.57;;;;;;;;;;5036306;28;20424;-61
2020/12/29 08:20:28;;;;;;;4.03;3.63;;;;;;;;;;5063366;28;20435;-60
2020/12/29 08:22:55;;;;;;;5.10;4.03;;;;;;;;;;5057574;28;20467;-60
2020/12/29 08:25:21;;;;;;;4.20;3.80;;;;;;;;;;5051495;28;20916;-60
2020/12/29 08:27:47;;;;;;;6.07;4.07;;;;;;;;;;5059550;28;20426;-61
2020/12/29 08:30:13;;;;;;;4.17;3.77;;;;;;;;;;5062564;28;20444;-61
2020/12/29 08:32:41;;;;;;;5.10;4.00;;;;;;;;;;5052428;28;21054;-60
2020/12/29 08:35:11;;;;;;;5.33;4.03;;;;;;;;;;5051640;28;20442;-60
2020/12/29 08:37:40;;;;;;;4.27;3.87;;;;;;;;;;5033470;28;20501;-61
2020/12/29 08:40:08;;;;;;;5.57;4.63;;;;;;;;;;5032821;28;20427;-61
2020/12/29 08:42:35;;;;;;;5.20;4.30;;;;;;;;;;5051010;28;20427;-60
2020/12/29 08:45:05;;;;;;;4.60;3.90;;;;;;;;;;5051644;28;20420;-61
2020/12/29 08:47:33;;;;;;;5.77;4.80;;;;;;;;;;5051078;28;20407;-60
2020/12/29 08:50:17;;;;;;;5.17;4.27;;;;;;;;;;5052620;28;20431;-61
2020/12/29 08:52:43;;;;;;;5.23;4.37;;;;;;;;;;5055875;28;20416;-60
2020/12/29 08:55:25;;;;;;;5.27;4.60;;;;;;;;;;5060533;28;20488;-61
2020/12/29 08:57:54;;;;;;;5.70;4.57;;;;;;;;;;5069439;28;20414;-60
2020/12/29 09:00:20;;;;;;;4.87;4.30;;;;;;;;;;5057946;28;20431;-61
2020/12/29 09:02:46;;;;;;;5.53;4.50;;;;;;;;;;5056931;28;20897;-60
2020/12/29 09:05:12;;;;;;;8.30;4.50;;;;;;;;;;5055787;28;20557;-60
2020/12/29 09:07:41;;;;;;;6.00;5.00;;;;;;;;;;5051994;28;20181;-61
2020/12/29 09:10:08;;;;;;;6.73;4.63;;;;;;;;;;5050013;28;21036;-61
2020/12/29 09:12:35;;;;;;;5.37;4.53;;;;;;;;;;5058736;28;21058;-60
2020/12/29 09:15:07;;;;;;;6.70;4.87;;;;;;;;;;5036946;28;20423;-61
2020/12/29 09:17:34;;;;;;;5.90;4.77;;;;;;;;;;5065915;28;20435;-61
2020/12/29 09:20:26;;;;;;;6.13;4.27;;;;;;;;;;5050466;28;20502;-60
2020/12/29 09:22:55;;;;;;;5.33;4.57;;;;;;;;;;5046711;28;20456;-60
2020/12/29 09:25:28;;;;;;;5.70;4.87;;;;;;;;;;5055956;28;20418;-61
2020/12/29 09:28:09;;;;;;;9.43;4.97;;;;;;;;;;5056076;28;20688;-61
2020/12/29 09:30:35;;;;;;;7.23;4.87;;;;;;;;;;5055956;28;20440;-63
2020/12/29 09:33:02;;;;;;;7.03;4.73;;;;;;;;;;5055783;28;20425;-61
2020/12/29 09:35:28;;;;;;;5.53;4.53;;;;;;;;;;5051890;28;20480;-61
2020/12/29 09:37:58;;;;;;;6.73;5.40;;;;;;;;;;5045879;28;20480;-62
2020/12/29 09:40:24;;;;;;;7.17;5.03;;;;;;;;;;5039569;28;20431;-61
2020/12/29 09:42:50;;;;;;;5.80;4.97;;;;;;;;;;5066173;28;20474;-59
2020/12/29 09:45:23;;;;;;;5.70;4.73;;;;;;;;;;5035313;28;20423;-61
2020/12/29 09:47:50;;;;;;;8.83;5.40;;;;;;;;;;5058913;28;20898;-61
2020/12/29 09:50:16;;;;;;;5.60;4.43;;;;;;;;;;5058372;28;20435;-61
2020/12/29 09:52:42;;;;;;;5.37;4.83;;;;;;;;;;5063998;28;20435;-61
2020/12/29 09:55:08;;;;;;;7.70;4.60;;;;;;;;;;5056875;28;20438;-61
2020/12/29 09:57:35;;;;;;;7.00;4.23;;;;;;;;;;5041473;28;20526;-61
2020/12/29 10:00:01;;;;;;;7.90;4.77;;;;;;;;;;5041728;28;20430;-62
2020/12/29 10:02:27;;;;;;;8.60;5.90;;;;;;;;;;5067733;28;20466;-61
2020/12/29 10:04:53;;;;;;;5.97;4.60;;;;;;;;;;5054966;28;20423;-59
2020/12/29 10:07:19;;;;;;;6.23;4.57;;;;;;;;;;5066339;28;20411;-60
2020/12/29 10:09:45;;;;;;;6.63;4.40;;;;;;;;;;5050370;28;21197;-60
2020/12/29 10:12:11;;;;;;;5.30;4.40;;;;;;;;;;5062210;28;20432;-61
2020/12/29 10:14:38;;;;;;;5.87;4.93;;;;;;;;;;5058834;28;20418;-61
2020/12/29 10:17:04;;;;;;;8.97;4.73;;;;;;;;;;5052927;28;20454;-62
2020/12/29 10:19:30;;;;;;;5.20;4.50;;;;;;;;;;5044720;28;20450;-60
2020/12/29 10:21:56;;;;;;;6.53;4.70;;;;;;;;;;5057028;28;20431;-63
2020/12/29 10:24:23;;;;;;;6.33;4.77;;;;;;;;;;5071371;28;20456;-60
2020/12/29 10:26:50;;;;;;;7.80;5.00;;;;;;;;;;5062196;28;20427;-60
2020/12/29 10:29:16;;;;;;;5.40;4.90;;;;;;;;;;5036774;28;20914;-63
2020/12/29 10:31:42;;;;;;;8.57;6.07;;;;;;;;;;5039860;28;20443;-59
2020/12/29 10:34:10;;;;;;;10.90;6.10;;;;;;;;;;5065986;28;20420;-58
2020/12/29 10:36:36;;;;;;;10.23;6.47;;;;;;;;;;5071336;28;20913;-60
2020/12/29 10:39:03;;;;;;;8.27;6.50;;;;;;;;;;5048527;28;20432;-59
2020/12/29 10:41:30;;;;;;;8.23;7.03;;;;;;;;;;5059493;28;20779;-59
2020/12/29 10:43:56;;;;;;;13.30;7.20;;;;;;;;;;5056211;28;20466;-63
2020/12/29 10:46:23;;;;;;;12.37;8.50;;;;;;;;;;5038700;28;20443;-60
2020/12/29 10:48:50;;;;;;;11.57;7.70;;;;;;;;;;5059849;28;20420;-60
2020/12/29 10:51:17;;;;;;;11.50;8.70;;;;;;;;;;5071514;28;20431;-61
2020/12/29 10:53:43;;;;;;;16.70;9.50;;;;;;;;;;5048679;28;20427;-59
2020/12/29 10:56:09;;;;;;;11.53;9.30;;;;;;;;;;5055595;28;20895;-60
2020/12/29 10:58:35;;;;;;;12.90;8.93;;;;;;;;;;5063170;28;20178;-60
2020/12/29 11:01:01;;;;;;;15.63;9.80;;;;;;;;;;5063237;28;20428;-64
2020/12/29 11:03:27;;;;;;;14.17;9.77;;;;;;;;;;5072060;28;20485;-61
2020/12/29 11:05:53;;;;;;;11.63;9.67;;;;;;;;;;5065999;28;20184;-60
2020/12/29 11:08:19;;;;;;;16.67;10.80;;;;;;;;;;5055146;28;20407;-60
2020/12/29 11:10:45;;;;;;;14.97;10.83;;;;;;;;;;5070509;28;20697;-60
2020/12/29 11:13:11;;;;;;;21.27;11.17;;;;;;;;;;5055558;28;20204;-60
2020/12/29 11:15:37;;;;;;;16.50;10.40;;;;;;;;;;5048887;28;20640;-61
2020/12/29 11:18:03;;;;;;;17.70;11.33;;;;;;;;;;5050971;28;20173;-62
2020/12/29 11:20:29;;;;;;;17.13;12.03;;;;;;;;;;5035343;28;20419;-60
2020/12/29 11:22:55;;;;;;;18.70;11.63;;;;;;;;;;5071727;28;20254;-58
2020/12/29 11:25:21;;;;;;;19.90;11.27;;;;;;;;;;5054022;28;20230;-61
2020/12/29 11:27:47;;;;;;;16.50;11.63;;;;;;;;;;5057029;28;20181;-60
2020/12/29 11:30:13;;;;;;;18.40;11.23;;;;;;;;;;5052185;28;20431;-60
2020/12/29 11:32:39;;;;;;;16.07;10.80;;;;;;;;;;5058782;28;20964;-61
2020/12/29 11:35:05;;;;;;;20.10;11.13;;;;;;;;;;5037652;28;20185;-61
2020/12/29 11:37:31;;;;;;;17.40;10.53;;;;;;;;;;5052222;28;20663;-60
2020/12/29 11:39:57;;;;;;;15.13;10.90;;;;;;;;;;5052150;28;20260;-61
2020/12/29 11:42:23;;;;;;;15.87;10.97;;;;;;;;;;5063015;28;20179;-60
2020/12/29 11:44:49;;;;;;;22.20;11.70;;;;;;;;;;5078067;28;20824;-60
2020/12/29 11:47:15;;;;;;;18.40;11.33;;;;;;;;;;5046564;28;20422;-60
2020/12/29 11:49:41;;;;;;;13.13;10.63;;;;;;;;;;5066899;28;20183;-60
2020/12/29 11:52:07;;;;;;;15.07;10.30;;;;;;;;;;5073383;28;20430;-61
2020/12/29 11:54:34;;;;;;;17.40;11.77;;;;;;;;;;5070493;28;20453;-62
2020/12/29 11:57:00;;;;;;;14.47;11.07;;;;;;;;;;5045658;28;20443;-61
2020/12/29 11:59:26;;;;;;;16.37;12.00;;;;;;;;;;5057396;28;20419;-60
2020/12/29 12:01:52;;;;;;;15.70;11.37;;;;;;;;;;5053130;28;20703;-63
2020/12/29 12:04:18;;;;;;;15.33;11.87;;;;;;;;;;5051627;28;20197;-60
2020/12/29 12:06:48;;;;;;;18.77;12.07;;;;;;;;;;5052046;28;20629;-60
2020/12/29 12:09:15;;;;;;;17.90;11.27;;;;;;;;;;5041677;28;20418;-60
2020/12/29 12:11:41;;;;;;;16.07;11.63;;;;;;;;;;5056648;28;20415;-60
2020/12/29 12:14:08;;;;;;;15.03;11.77;;;;;;;;;;5066200;28;20870;-61
2020/12/29 12:16:40;;;;;;;14.57;11.73;;;;;;;;;;5062872;28;20772;-60
2020/12/29 12:19:06;;;;;;;14.73;11.20;;;;;;;;;;5069681;28;20421;-60
2020/12/29 12:21:34;;;;;;;18.17;12.33;;;;;;;;;;5068445;28;20438;-61
2020/12/29 12:24:00;;;;;;;17.87;13.17;;;;;;;;;;5068495;28;20485;-62
2020/12/29 12:26:27;;;;;;;19.03;13.23;;;;;;;;;;5058581;28;20423;-59
2020/12/29 12:28:53;;;;;;;19.47;12.77;;;;;;;;;;5047466;28;20444;-61
2020/12/29 12:31:20;;;;;;;17.97;13.03;;;;;;;;;;5062096;28;20447;-61
2020/12/29 12:33:46;;;;;;;18.23;11.53;;;;;;;;;;5067434;28;20410;-61
2020/12/29 12:36:12;;;;;;;18.00;11.97;;;;;;;;;;5083217;28;21251;-60
2020/12/29 12:38:41;;;;;;;17.33;13.07;;;;;;;;;;5060052;28;20531;-60
2020/12/29 12:41:07;;;;;;;15.30;11.60;;;;;;;;;;5061617;28;20427;-60
2020/12/29 12:43:33;;;;;;;16.87;12.57;;;;;;;;;;5050699;28;20500;-60
2020/12/29 12:45:59;;;;;;;17.30;11.90;;;;;;;;;;5055454;28;20505;-60
2020/12/29 12:48:25;;;;;;;16.23;11.80;;;;;;;;;;5053989;28;20978;-61
2020/12/29 12:50:51;;;;;;;15.90;13.17;;;;;;;;;;5051393;28;20176;-62
2020/12/29 12:53:17;;;;;;;17.97;12.13;;;;;;;;;;5057911;28;20981;-61
2020/12/29 12:55:43;;;;;;;15.63;11.53;;;;;;;;;;5062566;28;20434;-61
2020/12/29 12:58:09;;;;;;;15.50;12.03;;;;;;;;;;5037102;28;20181;-60
2020/12/29 13:00:35;;;;;;;15.77;11.67;;;;;;;;;;5062758;28;20791;-60
2020/12/29 13:03:01;;;;;;;16.17;12.00;;;;;;;;;;5059008;28;20244;-60
2020/12/29 13:05:27;;;;;;;14.53;10.33;;;;;;;;;;5060712;28;20185;-61
2020/12/29 13:07:53;;;;;;;15.50;10.10;;;;;;;;;;5059032;28;20847;-61
2020/12/29 13:10:19;;;;;;;13.87;11.37;;;;;;;;;;5050957;28;20444;-61
2020/12/29 13:12:45;;;;;;;14.80;11.37;;;;;;;;;;5056382;28;20949;-62
2020/12/29 13:15:11;;;;;;;15.13;10.90;;;;;;;;;;5054839;28;20412;-59
2020/12/29 13:17:37;;;;;;;17.10;11.30;;;;;;;;;;5058673;28;20920;-60
2020/12/29 13:20:04;;;;;;;16.00;10.37;;;;;;;;;;5070549;28;20410;-61
2020/12/29 13:22:30;;;;;;;15.10;10.40;;;;;;;;;;5037257;28;20787;-61
2020/12/29 13:24:56;;;;;;;12.30;9.67;;;;;;;;;;5050577;28;20420;-60
2020/12/29 13:27:22;;;;;;;12.87;9.60;;;;;;;;;;5050882;28;20422;-59
2020/12/29 13:29:49;;;;;;;14.53;9.03;;;;;;;;;;5052092;28;20526;-60
2020/12/29 13:32:15;;;;;;;14.60;10.20;;;;;;;;;;5050830;28;20404;-59
2020/12/29 13:34:41;;;;;;;12.27;8.93;;;;;;;;;;5050563;28;20443;-60
2020/12/29 13:37:08;;;;;;;11.77;8.67;;;;;;;;;;5048999;28;20454;-62
2020/12/29 13:39:34;;;;;;;11.50;8.83;;;;;;;;;;5051570;28;20431;-60
2020/12/29 13:42:00;;;;;;;13.67;9.33;;;;;;;;;;5053322;28;20430;-61
2020/12/29 13:44:26;;;;;;;13.20;9.10;;;;;;;;;;5050085;28;20490;-61
2020/12/29 13:46:52;;;;;;;11.10;8.07;;;;;;;;;;5050157;28;20447;-60
2020/12/29 13:49:19;;;;;;;12.67;8.00;;;;;;;;;;5040425;28;20411;-60
2020/12/29 13:51:45;;;;;;;11.23;8.20;;;;;;;;;;5038553;28;20842;-60
2020/12/29 13:54:11;;;;;;;12.10;8.73;;;;;;;;;;5062331;28;20438;-61
2020/12/29 13:56:37;;;;;;;9.97;8.57;;;;;;;;;;5051415;28;20423;-61
2020/12/29 13:59:04;;;;;;;11.17;8.23;;;;;;;;;;5056254;28;20569;-59
2020/12/29 14:01:30;;;;;;;12.33;8.03;;;;;;;;;;5052584;28;20219;-60
2020/12/29 14:03:56;;;;;;;12.13;8.87;;;;;;;;;;5043524;28;20450;-61
2020/12/29 14:06:22;;;;;;;11.77;8.43;;;;;;;;;;5056707;28;20686;-60
2020/12/29 14:08:48;;;;;;;9.60;7.63;;;;;;;;;;5068379;28;20431;-61
2020/12/29 14:11:15;;;;;;;10.53;7.70;;;;;;;;;;5063934;28;20232;-60
2020/12/29 14:13:43;;;;;;;9.73;7.83;;;;;;;;;;5053449;28;20944;-60
2020/12/29 14:16:09;;;;;;;10.80;7.63;;;;;;;;;;5070309;28;20929;-60
2020/12/29 14:18:35;;;;;;;10.93;8.23;;;;;;;;;;5072670;28;20955;-59
2020/12/29 14:21:02;;;;;;;15.17;8.10;;;;;;;;;;5058175;28;20771;-60
2020/12/29 14:23:28;;;;;;;9.33;7.73;;;;;;;;;;5061450;28;20521;-60
2020/12/29 14:25:54;;;;;;;12.00;9.23;;;;;;;;;;5059193;28;20469;-60
2020/12/29 14:28:21;;;;;;;12.30;8.40;;;;;;;;;;5041527;28;21272;-60
2020/12/29 14:30:47;;;;;;;9.67;7.93;;;;;;;;;;5043246;28;20504;-61
2020/12/29 14:33:14;;;;;;;13.10;8.17;;;;;;;;;;5069946;28;20817;-60
2020/12/29 14:35:41;;;;;;;8.43;7.40;;;;;;;;;;5059970;28;21117;-58
2020/12/29 14:38:07;;;;;;;11.00;8.27;;;;;;;;;;5054130;28;20419;-62